sensor_id;sensor_type;location;lat;lon;timestamp;P1;durP1;ratioP1;P2;durP2;ratioP2
20705;SDS011;10514;49.468;11.044;2022-08-01T00:00:40;3.83;;;2.42;;
20705;SDS011;10514;49.468;11.044;2022-08-01T00:03:06;3.65;;;2.33;;
20705;SDS011;10514;49.468;11.044;2022-08-01T00:05:32;4.68;;;2.50;;
20705;SDS011;10514;49.468;11.044;2022-08-01T00:07:58;3.33;;;2.28;;
20705;SDS011;10514;49.468;11.044;2022-08-01T00:10:24;2.63;;;2.40;;
20705;SDS011;10514;49.468;11.044;2022-08-01T00:12:50;3.42;;;2.40;;
20705;SDS011;10514;49.468;11.044;2022-08-01T00:15:16;4.80;;;2.45;;
20705;SDS011;10514;49.468;11.044;2022-08-01T00:17:42;4.05;;;2.17;;
20705;SDS011;10514;49.468;11.044;2022-08-01T00:20:09;3.17;;;2.35;;
20705;SDS011;10514;49.468;11.044;2022-08-01T00:22:36;3.95;;;2.25;;
20705;SDS011;10514;49.468;11.044;2022-08-01T00:25:03;4.88;;;2.72;;
20705;SDS011;10514;49.468;11.044;2022-08-01T00:27:29;3.25;;;2.60;;
20705;SDS011;10514;49.468;11.044;2022-08-01T00:29:55;4.53;;;2.70;;
20705;SDS011;10514;49.468;11.044;2022-08-01T00:32:21;3.42;;;2.35;;
20705;SDS011;10514;49.468;11.044;2022-08-01T00:34:47;2.80;;;2.25;;
20705;SDS011;10514;49.468;11.044;2022-08-01T00:37:13;5.60;;;2.70;;
20705;SDS011;10514;49.468;11.044;2022-08-01T00:39:39;4.03;;;2.45;;
20705;SDS011;10514;49.468;11.044;2022-08-01T00:42:08;2.72;;;2.40;;
20705;SDS011;10514;49.468;11.044;2022-08-01T00:44:35;3.97;;;2.15;;
20705;SDS011;10514;49.468;11.044;2022-08-01T00:47:01;5.65;;;2.85;;
20705;SDS011;10514;49.468;11.044;2022-08-01T00:49:27;2.67;;;2.30;;
20705;SDS011;10514;49.468;11.044;2022-08-01T00:51:53;3.05;;;2.30;;
20705;SDS011;10514;49.468;11.044;2022-08-01T00:54:20;3.80;;;2.10;;
20705;SDS011;10514;49.468;11.044;2022-08-01T00:56:46;4.60;;;2.80;;
20705;SDS011;10514;49.468;11.044;2022-08-01T00:59:12;3.38;;;2.47;;
20705;SDS011;10514;49.468;11.044;2022-08-01T01:01:39;3.35;;;2.45;;
20705;SDS011;10514;49.468;11.044;2022-08-01T01:04:05;4.05;;;2.97;;
20705;SDS011;10514;49.468;11.044;2022-08-01T01:06:41;3.70;;;2.50;;
20705;SDS011;10514;49.468;11.044;2022-08-01T01:09:32;3.30;;;2.67;;
20705;SDS011;10514;49.468;11.044;2022-08-01T01:12:08;3.80;;;2.80;;
20705;SDS011;10514;49.468;11.044;2022-08-01T01:17:04;5.50;;;3.30;;
20705;SDS011;10514;49.468;11.044;2022-08-01T01:19:31;4.03;;;2.97;;
20705;SDS011;10514;49.468;11.044;2022-08-01T01:22:22;4.40;;;3.22;;
20705;SDS011;10514;49.468;11.044;2022-08-01T01:24:56;3.55;;;3.10;;
20705;SDS011;10514;49.468;11.044;2022-08-01T01:29:54;3.75;;;3.38;;
20705;SDS011;10514;49.468;11.044;2022-08-01T01:32:42;3.85;;;3.08;;
20705;SDS011;10514;49.468;11.044;2022-08-01T01:35:10;3.13;;;2.50;;
20705;SDS011;10514;49.468;11.044;2022-08-01T01:37:39;4.20;;;3.13;;
20705;SDS011;10514;49.468;11.044;2022-08-01T01:40:06;4.53;;;3.10;;
20705;SDS011;10514;49.468;11.044;2022-08-01T01:42:33;4.45;;;3.33;;
20705;SDS011;10514;49.468;11.044;2022-08-01T01:45:00;5.20;;;3.55;;
20705;SDS011;10514;49.468;11.044;2022-08-01T01:47:28;4.80;;;2.90;;
20705;SDS011;10514;49.468;11.044;2022-08-01T01:49:54;5.30;;;3.50;;
20705;SDS011;10514;49.468;11.044;2022-08-01T01:52:21;3.78;;;2.78;;
20705;SDS011;10514;49.468;11.044;2022-08-01T01:54:48;4.70;;;2.88;;
20705;SDS011;10514;49.468;11.044;2022-08-01T01:57:15;5.25;;;2.60;;
20705;SDS011;10514;49.468;11.044;2022-08-01T01:59:42;4.05;;;2.95;;
20705;SDS011;10514;49.468;11.044;2022-08-01T02:02:08;4.35;;;3.50;;
20705;SDS011;10514;49.468;11.044;2022-08-01T02:04:35;5.50;;;3.33;;
20705;SDS011;10514;49.468;11.044;2022-08-01T02:07:02;4.35;;;2.97;;
20705;SDS011;10514;49.468;11.044;2022-08-01T02:09:28;4.88;;;3.45;;
20705;SDS011;10514;49.468;11.044;2022-08-01T02:11:54;5.20;;;3.15;;
20705;SDS011;10514;49.468;11.044;2022-08-01T02:14:21;4.32;;;2.90;;
20705;SDS011;10514;49.468;11.044;2022-08-01T02:16:48;3.78;;;2.80;;
20705;SDS011;10514;49.468;11.044;2022-08-01T02:19:18;4.43;;;2.95;;
20705;SDS011;10514;49.468;11.044;2022-08-01T02:22:27;5.72;;;3.63;;
20705;SDS011;10514;49.468;11.044;2022-08-01T02:27:06;7.22;;;3.00;;
20705;SDS011;10514;49.468;11.044;2022-08-01T02:29:42;3.28;;;2.85;;
20705;SDS011;10514;49.468;11.044;2022-08-01T02:32:14;3.38;;;2.63;;
20705;SDS011;10514;49.468;11.044;2022-08-01T02:34:42;3.70;;;2.65;;
20705;SDS011;10514;49.468;11.044;2022-08-01T02:37:12;5.13;;;3.13;;
20705;SDS011;10514;49.468;11.044;2022-08-01T02:39:40;4.00;;;2.70;;
20705;SDS011;10514;49.468;11.044;2022-08-01T02:42:07;4.50;;;3.10;;
20705;SDS011;10514;49.468;11.044;2022-08-01T02:44:37;5.38;;;2.83;;
20705;SDS011;10514;49.468;11.044;2022-08-01T02:47:06;4.53;;;2.90;;
20705;SDS011;10514;49.468;11.044;2022-08-01T02:49:36;6.55;;;2.97;;
20705;SDS011;10514;49.468;11.044;2022-08-01T02:52:08;3.15;;;2.85;;
20705;SDS011;10514;49.468;11.044;2022-08-01T02:54:36;3.65;;;3.00;;
20705;SDS011;10514;49.468;11.044;2022-08-01T02:57:04;3.83;;;3.17;;
20705;SDS011;10514;49.468;11.044;2022-08-01T02:59:31;5.90;;;3.05;;
20705;SDS011;10514;49.468;11.044;2022-08-01T03:01:58;3.65;;;3.33;;
20705;SDS011;10514;49.468;11.044;2022-08-01T03:04:25;4.82;;;2.92;;
20705;SDS011;10514;49.468;11.044;2022-08-01T03:06:53;6.95;;;3.00;;
20705;SDS011;10514;49.468;11.044;2022-08-01T03:09:19;5.68;;;3.17;;
20705;SDS011;10514;49.468;11.044;2022-08-01T03:11:48;5.47;;;2.78;;
20705;SDS011;10514;49.468;11.044;2022-08-01T03:14:14;5.45;;;3.45;;
20705;SDS011;10514;49.468;11.044;2022-08-01T03:16:42;5.93;;;3.33;;
20705;SDS011;10514;49.468;11.044;2022-08-01T03:19:08;3.70;;;2.75;;
20705;SDS011;10514;49.468;11.044;2022-08-01T03:21:35;8.43;;;3.22;;
20705;SDS011;10514;49.468;11.044;2022-08-01T03:24:03;4.82;;;3.17;;
20705;SDS011;10514;49.468;11.044;2022-08-01T03:26:30;5.70;;;3.28;;
20705;SDS011;10514;49.468;11.044;2022-08-01T03:28:57;3.05;;;2.70;;
20705;SDS011;10514;49.468;11.044;2022-08-01T03:31:24;5.72;;;2.50;;
20705;SDS011;10514;49.468;11.044;2022-08-01T03:33:51;5.47;;;3.17;;
20705;SDS011;10514;49.468;11.044;2022-08-01T03:36:17;3.13;;;2.83;;
20705;SDS011;10514;49.468;11.044;2022-08-01T03:38:46;3.75;;;3.20;;
20705;SDS011;10514;49.468;11.044;2022-08-01T03:41:14;4.35;;;3.35;;
20705;SDS011;10514;49.468;11.044;2022-08-01T03:43:43;6.10;;;2.78;;
20705;SDS011;10514;49.468;11.044;2022-08-01T03:46:13;3.38;;;2.90;;
20705;SDS011;10514;49.468;11.044;2022-08-01T03:48:41;5.32;;;2.97;;
20705;SDS011;10514;49.468;11.044;2022-08-01T03:51:08;5.05;;;2.95;;
20705;SDS011;10514;49.468;11.044;2022-08-01T03:53:35;5.03;;;3.45;;
20705;SDS011;10514;49.468;11.044;2022-08-01T03:56:02;3.72;;;2.65;;
20705;SDS011;10514;49.468;11.044;2022-08-01T03:58:29;4.03;;;2.90;;
20705;SDS011;10514;49.468;11.044;2022-08-01T04:00:56;5.55;;;3.40;;
20705;SDS011;10514;49.468;11.044;2022-08-01T04:03:23;4.03;;;2.70;;
20705;SDS011;10514;49.468;11.044;2022-08-01T04:05:49;3.45;;;2.80;;
20705;SDS011;10514;49.468;11.044;2022-08-01T04:08:15;2.85;;;2.53;;
20705;SDS011;10514;49.468;11.044;2022-08-01T04:10:41;3.17;;;2.53;;
20705;SDS011;10514;49.468;11.044;2022-08-01T04:13:07;4.68;;;3.13;;
20705;SDS011;10514;49.468;11.044;2022-08-01T04:15:34;6.72;;;3.03;;
20705;SDS011;10514;49.468;11.044;2022-08-01T04:18:00;3.40;;;3.10;;
20705;SDS011;10514;49.468;11.044;2022-08-01T04:20:26;3.65;;;3.15;;
20705;SDS011;10514;49.468;11.044;2022-08-01T04:22:52;4.32;;;2.78;;
20705;SDS011;10514;49.468;11.044;2022-08-01T04:27:47;4.55;;;2.75;;
20705;SDS011;10514;49.468;11.044;2022-08-01T04:30:14;3.50;;;2.22;;
20705;SDS011;10514;49.468;11.044;2022-08-01T04:32:41;3.63;;;2.70;;
20705;SDS011;10514;49.468;11.044;2022-08-01T04:35:09;4.32;;;2.88;;
20705;SDS011;10514;49.468;11.044;2022-08-01T04:37:37;3.80;;;2.75;;
20705;SDS011;10514;49.468;11.044;2022-08-01T04:40:05;7.13;;;2.90;;
20705;SDS011;10514;49.468;11.044;2022-08-01T04:42:32;3.42;;;2.65;;
20705;SDS011;10514;49.468;11.044;2022-08-01T04:44:58;4.05;;;2.63;;
20705;SDS011;10514;49.468;11.044;2022-08-01T04:47:27;5.22;;;2.80;;
20705;SDS011;10514;49.468;11.044;2022-08-01T04:49:55;4.60;;;2.42;;
20705;SDS011;10514;49.468;11.044;2022-08-01T04:52:21;7.05;;;3.05;;
20705;SDS011;10514;49.468;11.044;2022-08-01T04:54:47;3.13;;;2.40;;
20705;SDS011;10514;49.468;11.044;2022-08-01T04:57:13;3.17;;;2.63;;
20705;SDS011;10514;49.468;11.044;2022-08-01T04:59:42;3.40;;;2.47;;
20705;SDS011;10514;49.468;11.044;2022-08-01T05:04:34;2.72;;;2.38;;
20705;SDS011;10514;49.468;11.044;2022-08-01T05:07:00;3.95;;;2.88;;
20705;SDS011;10514;49.468;11.044;2022-08-01T05:09:27;4.47;;;2.13;;
20705;SDS011;10514;49.468;11.044;2022-08-01T05:11:53;2.92;;;2.15;;
20705;SDS011;10514;49.468;11.044;2022-08-01T05:14:19;4.35;;;2.35;;
20705;SDS011;10514;49.468;11.044;2022-08-01T05:16:45;3.67;;;1.85;;
20705;SDS011;10514;49.468;11.044;2022-08-01T05:19:11;3.85;;;2.30;;
20705;SDS011;10514;49.468;11.044;2022-08-01T05:21:37;5.00;;;2.13;;
20705;SDS011;10514;49.468;11.044;2022-08-01T05:24:04;2.85;;;2.00;;
20705;SDS011;10514;49.468;11.044;2022-08-01T05:26:30;3.67;;;1.92;;
20705;SDS011;10514;49.468;11.044;2022-08-01T05:28:56;3.65;;;1.55;;
20705;SDS011;10514;49.468;11.044;2022-08-01T05:31:22;3.00;;;2.00;;
20705;SDS011;10514;49.468;11.044;2022-08-01T05:33:48;2.95;;;1.85;;
20705;SDS011;10514;49.468;11.044;2022-08-01T05:36:14;2.55;;;1.88;;
20705;SDS011;10514;49.468;11.044;2022-08-01T05:38:40;3.53;;;2.00;;
20705;SDS011;10514;49.468;11.044;2022-08-01T05:41:06;2.95;;;2.05;;
20705;SDS011;10514;49.468;11.044;2022-08-01T05:43:32;2.55;;;1.70;;
20705;SDS011;10514;49.468;11.044;2022-08-01T05:45:58;5.07;;;1.80;;
20705;SDS011;10514;49.468;11.044;2022-08-01T05:48:24;4.10;;;1.60;;
20705;SDS011;10514;49.468;11.044;2022-08-01T05:50:49;6.75;;;2.15;;
20705;SDS011;10514;49.468;11.044;2022-08-01T05:53:15;2.10;;;1.42;;
20705;SDS011;10514;49.468;11.044;2022-08-01T05:55:41;2.85;;;1.63;;
20705;SDS011;10514;49.468;11.044;2022-08-01T05:58:07;5.22;;;1.80;;
20705;SDS011;10514;49.468;11.044;2022-08-01T06:00:33;3.10;;;1.60;;
20705;SDS011;10514;49.468;11.044;2022-08-01T06:02:59;2.33;;;1.50;;
20705;SDS011;10514;49.468;11.044;2022-08-01T06:05:25;2.13;;;1.63;;
20705;SDS011;10514;49.468;11.044;2022-08-01T06:07:51;2.33;;;1.50;;
20705;SDS011;10514;49.468;11.044;2022-08-01T06:10:17;1.88;;;1.45;;
20705;SDS011;10514;49.468;11.044;2022-08-01T06:12:42;4.15;;;1.52;;
20705;SDS011;10514;49.468;11.044;2022-08-01T06:15:08;2.72;;;1.55;;
20705;SDS011;10514;49.468;11.044;2022-08-01T06:17:35;1.90;;;1.40;;
20705;SDS011;10514;49.468;11.044;2022-08-01T06:20:00;2.47;;;1.60;;
20705;SDS011;10514;49.468;11.044;2022-08-01T06:22:27;4.28;;;2.03;;
20705;SDS011;10514;49.468;11.044;2022-08-01T06:24:53;2.40;;;1.73;;
20705;SDS011;10514;49.468;11.044;2022-08-01T06:27:18;3.75;;;1.58;;
20705;SDS011;10514;49.468;11.044;2022-08-01T06:29:44;2.88;;;1.20;;
20705;SDS011;10514;49.468;11.044;2022-08-01T06:32:10;4.50;;;1.65;;
20705;SDS011;10514;49.468;11.044;2022-08-01T06:34:36;1.45;;;1.05;;
20705;SDS011;10514;49.468;11.044;2022-08-01T06:37:02;3.90;;;1.40;;
20705;SDS011;10514;49.468;11.044;2022-08-01T06:39:28;2.22;;;1.40;;
20705;SDS011;10514;49.468;11.044;2022-08-01T06:41:53;1.95;;;1.42;;
20705;SDS011;10514;49.468;11.044;2022-08-01T06:44:19;2.50;;;1.25;;
20705;SDS011;10514;49.468;11.044;2022-08-01T06:46:45;1.83;;;1.13;;
20705;SDS011;10514;49.468;11.044;2022-08-01T06:49:11;2.47;;;1.30;;
20705;SDS011;10514;49.468;11.044;2022-08-01T06:51:37;2.80;;;1.50;;
20705;SDS011;10514;49.468;11.044;2022-08-01T06:54:03;2.83;;;1.40;;
20705;SDS011;10514;49.468;11.044;2022-08-01T06:56:29;3.25;;;1.38;;
20705;SDS011;10514;49.468;11.044;2022-08-01T06:58:55;1.75;;;1.10;;
20705;SDS011;10514;49.468;11.044;2022-08-01T07:01:26;1.63;;;1.17;;
20705;SDS011;10514;49.468;11.044;2022-08-01T07:03:53;3.92;;;1.75;;
20705;SDS011;10514;49.468;11.044;2022-08-01T07:06:21;2.67;;;1.60;;
20705;SDS011;10514;49.468;11.044;2022-08-01T07:08:48;2.80;;;1.42;;
20705;SDS011;10514;49.468;11.044;2022-08-01T07:11:14;3.28;;;1.52;;
20705;SDS011;10514;49.468;11.044;2022-08-01T07:13:40;4.03;;;1.60;;
20705;SDS011;10514;49.468;11.044;2022-08-01T07:16:06;3.28;;;1.63;;
20705;SDS011;10514;49.468;11.044;2022-08-01T07:18:32;2.30;;;1.40;;
20705;SDS011;10514;49.468;11.044;2022-08-01T07:20:57;2.05;;;1.13;;
20705;SDS011;10514;49.468;11.044;2022-08-01T07:23:22;3.85;;;1.45;;
20705;SDS011;10514;49.468;11.044;2022-08-01T07:25:48;1.80;;;1.42;;
20705;SDS011;10514;49.468;11.044;2022-08-01T07:28:17;2.47;;;1.38;;
20705;SDS011;10514;49.468;11.044;2022-08-01T07:30:43;4.47;;;1.48;;
20705;SDS011;10514;49.468;11.044;2022-08-01T07:33:09;1.90;;;1.40;;
20705;SDS011;10514;49.468;11.044;2022-08-01T07:35:35;1.50;;;1.20;;
20705;SDS011;10514;49.468;11.044;2022-08-01T07:38:03;2.22;;;1.40;;
20705;SDS011;10514;49.468;11.044;2022-08-01T07:40:29;2.10;;;1.30;;
20705;SDS011;10514;49.468;11.044;2022-08-01T07:42:55;4.38;;;1.27;;
20705;SDS011;10514;49.468;11.044;2022-08-01T07:45:21;3.05;;;1.88;;
20705;SDS011;10514;49.468;11.044;2022-08-01T07:47:47;3.55;;;1.40;;
20705;SDS011;10514;49.468;11.044;2022-08-01T07:50:14;3.55;;;1.30;;
20705;SDS011;10514;49.468;11.044;2022-08-01T07:52:40;3.85;;;1.40;;
20705;SDS011;10514;49.468;11.044;2022-08-01T07:55:07;2.42;;;1.40;;
20705;SDS011;10514;49.468;11.044;2022-08-01T07:57:33;2.28;;;1.30;;
20705;SDS011;10514;49.468;11.044;2022-08-01T07:59:59;1.67;;;1.35;;
20705;SDS011;10514;49.468;11.044;2022-08-01T08:02:25;2.85;;;1.08;;
20705;SDS011;10514;49.468;11.044;2022-08-01T08:04:51;1.98;;;1.10;;
20705;SDS011;10514;49.468;11.044;2022-08-01T08:07:17;2.85;;;1.05;;
20705;SDS011;10514;49.468;11.044;2022-08-01T08:09:43;4.20;;;2.45;;
20705;SDS011;10514;49.468;11.044;2022-08-01T08:12:08;3.70;;;1.60;;
20705;SDS011;10514;49.468;11.044;2022-08-01T08:14:34;4.55;;;1.80;;
20705;SDS011;10514;49.468;11.044;2022-08-01T08:17:00;1.52;;;1.35;;
20705;SDS011;10514;49.468;11.044;2022-08-01T08:19:26;2.00;;;1.30;;
20705;SDS011;10514;49.468;11.044;2022-08-01T08:21:51;2.88;;;1.30;;
20705;SDS011;10514;49.468;11.044;2022-08-01T08:24:18;2.65;;;1.10;;
20705;SDS011;10514;49.468;11.044;2022-08-01T08:26:44;4.05;;;1.30;;
20705;SDS011;10514;49.468;11.044;2022-08-01T08:29:10;4.55;;;1.30;;
20705;SDS011;10514;49.468;11.044;2022-08-01T08:31:36;8.40;;;1.10;;
20705;SDS011;10514;49.468;11.044;2022-08-01T08:34:02;1.60;;;1.35;;
20705;SDS011;10514;49.468;11.044;2022-08-01T08:36:28;1.40;;;1.10;;
20705;SDS011;10514;49.468;11.044;2022-08-01T08:38:54;4.13;;;1.30;;
20705;SDS011;10514;49.468;11.044;2022-08-01T08:41:20;1.30;;;0.90;;
20705;SDS011;10514;49.468;11.044;2022-08-01T08:43:46;2.83;;;1.30;;
20705;SDS011;10514;49.468;11.044;2022-08-01T08:46:12;7.80;;;1.20;;
20705;SDS011;10514;49.468;11.044;2022-08-01T08:48:41;1.60;;;1.08;;
20705;SDS011;10514;49.468;11.044;2022-08-01T08:51:08;3.28;;;1.40;;
20705;SDS011;10514;49.468;11.044;2022-08-01T08:53:38;1.98;;;1.10;;
20705;SDS011;10514;49.468;11.044;2022-08-01T08:56:08;1.50;;;1.00;;
20705;SDS011;10514;49.468;11.044;2022-08-01T08:58:36;2.83;;;1.17;;
20705;SDS011;10514;49.468;11.044;2022-08-01T09:01:06;1.63;;;1.02;;
20705;SDS011;10514;49.468;11.044;2022-08-01T09:03:33;1.50;;;1.17;;
20705;SDS011;10514;49.468;11.044;2022-08-01T09:06:00;1.55;;;0.80;;
20705;SDS011;10514;49.468;11.044;2022-08-01T09:08:26;2.10;;;1.38;;
20705;SDS011;10514;49.468;11.044;2022-08-01T09:10:52;1.42;;;1.02;;
20705;SDS011;10514;49.468;11.044;2022-08-01T09:13:18;3.85;;;1.00;;
20705;SDS011;10514;49.468;11.044;2022-08-01T09:15:47;1.30;;;0.93;;
20705;SDS011;10514;49.468;11.044;2022-08-01T09:18:31;1.60;;;0.85;;
20705;SDS011;10514;49.468;11.044;2022-08-01T09:23:32;1.88;;;1.00;;
20705;SDS011;10514;49.468;11.044;2022-08-01T09:26:04;1.95;;;1.15;;
20705;SDS011;10514;49.468;11.044;2022-08-01T09:28:30;3.75;;;1.00;;
20705;SDS011;10514;49.468;11.044;2022-08-01T09:30:57;2.65;;;1.00;;
20705;SDS011;10514;49.468;11.044;2022-08-01T09:33:23;3.05;;;0.90;;
20705;SDS011;10514;49.468;11.044;2022-08-01T09:35:56;1.10;;;1.00;;
20705;SDS011;10514;49.468;11.044;2022-08-01T09:38:23;3.55;;;1.10;;
20705;SDS011;10514;49.468;11.044;2022-08-01T09:43:18;2.70;;;1.10;;
20705;SDS011;10514;49.468;11.044;2022-08-01T09:45:44;1.83;;;0.93;;
20705;SDS011;10514;49.468;11.044;2022-08-01T09:48:10;1.05;;;0.98;;
20705;SDS011;10514;49.468;11.044;2022-08-01T09:50:40;1.90;;;1.00;;
20705;SDS011;10514;49.468;11.044;2022-08-01T09:53:08;2.63;;;1.10;;
20705;SDS011;10514;49.468;11.044;2022-08-01T09:55:35;1.27;;;1.15;;
20705;SDS011;10514;49.468;11.044;2022-08-01T09:58:01;1.90;;;0.93;;
20705;SDS011;10514;49.468;11.044;2022-08-01T10:00:29;2.33;;;0.93;;
20705;SDS011;10514;49.468;11.044;2022-08-01T10:02:55;3.97;;;0.90;;
20705;SDS011;10514;49.468;11.044;2022-08-01T10:05:30;1.60;;;1.00;;
20705;SDS011;10514;49.468;11.044;2022-08-01T10:08:01;1.23;;;0.90;;
20705;SDS011;10514;49.468;11.044;2022-08-01T10:10:28;3.08;;;0.80;;
20705;SDS011;10514;49.468;11.044;2022-08-01T10:12:56;1.48;;;0.98;;
20705;SDS011;10514;49.468;11.044;2022-08-01T10:15:22;2.10;;;1.90;;
20705;SDS011;10514;49.468;11.044;2022-08-01T10:17:58;2.53;;;1.00;;
20705;SDS011;10514;49.468;11.044;2022-08-01T10:20:31;3.28;;;0.95;;
20705;SDS011;10514;49.468;11.044;2022-08-01T10:22:58;1.25;;;0.60;;
20705;SDS011;10514;49.468;11.044;2022-08-01T10:25:27;14.63;;;1.27;;
20705;SDS011;10514;49.468;11.044;2022-08-01T10:27:54;0.75;;;0.65;;
20705;SDS011;10514;49.468;11.044;2022-08-01T10:30:22;1.75;;;1.05;;
20705;SDS011;10514;49.468;11.044;2022-08-01T10:32:48;3.22;;;0.70;;
20705;SDS011;10514;49.468;11.044;2022-08-01T10:35:17;1.50;;;0.85;;
20705;SDS011;10514;49.468;11.044;2022-08-01T10:37:44;2.03;;;0.82;;
20705;SDS011;10514;49.468;11.044;2022-08-01T10:40:14;1.90;;;0.90;;
20705;SDS011;10514;49.468;11.044;2022-08-01T10:42:43;4.78;;;0.80;;
20705;SDS011;10514;49.468;11.044;2022-08-01T10:45:11;2.97;;;0.98;;
20705;SDS011;10514;49.468;11.044;2022-08-01T10:47:46;1.35;;;0.80;;
20705;SDS011;10514;49.468;11.044;2022-08-01T10:50:41;0.85;;;0.82;;
20705;SDS011;10514;49.468;11.044;2022-08-01T10:53:11;2.10;;;1.00;;
20705;SDS011;10514;49.468;11.044;2022-08-01T10:55:47;2.53;;;1.02;;
20705;SDS011;10514;49.468;11.044;2022-08-01T10:58:25;3.25;;;1.23;;
20705;SDS011;10514;49.468;11.044;2022-08-01T11:01:14;1.70;;;1.13;;
20705;SDS011;10514;49.468;11.044;2022-08-01T11:06:25;2.60;;;1.10;;
20705;SDS011;10514;49.468;11.044;2022-08-01T11:09:20;1.23;;;0.80;;
20705;SDS011;10514;49.468;11.044;2022-08-01T11:11:58;0.95;;;0.88;;
20705;SDS011;10514;49.468;11.044;2022-08-01T11:15:28;1.30;;;0.90;;
20705;SDS011;10514;49.468;11.044;2022-08-01T11:20:11;8.65;;;1.33;;
20705;SDS011;10514;49.468;11.044;2022-08-01T11:33:07;2.50;;;0.90;;
20705;SDS011;10514;49.468;11.044;2022-08-01T11:35:34;2.17;;;0.88;;
20705;SDS011;10514;49.468;11.044;2022-08-01T11:43:55;5.00;;;1.38;;
20705;SDS011;10514;49.468;11.044;2022-08-01T11:54:40;1.27;;;0.80;;
20705;SDS011;10514;49.468;11.044;2022-08-01T11:59:46;1.52;;;0.90;;
20705;SDS011;10514;49.468;11.044;2022-08-01T12:02:17;1.40;;;0.80;;
20705;SDS011;10514;49.468;11.044;2022-08-01T12:04:52;2.55;;;0.80;;
20705;SDS011;10514;49.468;11.044;2022-08-01T12:07:26;2.45;;;1.00;;
20705;SDS011;10514;49.468;11.044;2022-08-01T12:10:04;2.60;;;0.75;;
20705;SDS011;10514;49.468;11.044;2022-08-01T12:12:30;3.97;;;0.98;;
20705;SDS011;10514;49.468;11.044;2022-08-01T12:15:01;1.95;;;1.20;;
20705;SDS011;10514;49.468;11.044;2022-08-01T12:17:38;2.53;;;1.17;;
20705;SDS011;10514;49.468;11.044;2022-08-01T12:20:05;1.50;;;1.00;;
20705;SDS011;10514;49.468;11.044;2022-08-01T12:22:31;2.58;;;0.80;;
20705;SDS011;10514;49.468;11.044;2022-08-01T12:27:32;5.10;;;1.10;;
20705;SDS011;10514;49.468;11.044;2022-08-01T12:29:59;1.45;;;1.00;;
20705;SDS011;10514;49.468;11.044;2022-08-01T12:32:26;2.53;;;1.08;;
20705;SDS011;10514;49.468;11.044;2022-08-01T12:34:54;1.30;;;0.80;;
20705;SDS011;10514;49.468;11.044;2022-08-01T12:37:21;2.55;;;0.90;;
20705;SDS011;10514;49.468;11.044;2022-08-01T12:39:47;3.65;;;0.80;;
20705;SDS011;10514;49.468;11.044;2022-08-01T12:42:13;3.88;;;0.80;;
20705;SDS011;10514;49.468;11.044;2022-08-01T12:44:40;0.90;;;0.77;;
20705;SDS011;10514;49.468;11.044;2022-08-01T12:47:15;1.83;;;0.98;;
20705;SDS011;10514;49.468;11.044;2022-08-01T12:50:03;0.70;;;0.70;;
20705;SDS011;10514;49.468;11.044;2022-08-01T12:52:37;1.35;;;1.02;;
20705;SDS011;10514;49.468;11.044;2022-08-01T12:55:14;1.85;;;0.70;;
20705;SDS011;10514;49.468;11.044;2022-08-01T12:57:41;1.48;;;1.05;;
20705;SDS011;10514;49.468;11.044;2022-08-01T13:00:24;1.00;;;0.80;;
20705;SDS011;10514;49.468;11.044;2022-08-01T13:03:12;0.93;;;0.82;;
20705;SDS011;10514;49.468;11.044;2022-08-01T13:05:53;1.20;;;1.10;;
20705;SDS011;10514;49.468;11.044;2022-08-01T13:08:31;1.02;;;0.90;;
20705;SDS011;10514;49.468;11.044;2022-08-01T13:11:00;5.35;;;1.25;;
20705;SDS011;10514;49.468;11.044;2022-08-01T13:13:34;4.20;;;1.60;;
20705;SDS011;10514;49.468;11.044;2022-08-01T13:16:03;1.88;;;1.10;;
20705;SDS011;10514;49.468;11.044;2022-08-01T13:18:30;7.32;;;1.95;;
20705;SDS011;10514;49.468;11.044;2022-08-01T13:21:13;2.22;;;1.58;;
20705;SDS011;10514;49.468;11.044;2022-08-01T13:23:40;1.98;;;1.25;;
20705;SDS011;10514;49.468;11.044;2022-08-01T13:29:05;2.03;;;1.25;;
20705;SDS011;10514;49.468;11.044;2022-08-01T13:31:32;3.63;;;1.15;;
20705;SDS011;10514;49.468;11.044;2022-08-01T13:33:58;1.55;;;1.10;;
20705;SDS011;10514;49.468;11.044;2022-08-01T13:36:24;1.27;;;0.88;;
20705;SDS011;10514;49.468;11.044;2022-08-01T13:38:53;3.08;;;1.00;;
20705;SDS011;10514;49.468;11.044;2022-08-01T13:41:38;2.90;;;1.60;;
20705;SDS011;10514;49.468;11.044;2022-08-01T13:44:03;2.78;;;1.58;;
20705;SDS011;10514;49.468;11.044;2022-08-01T13:46:30;6.53;;;2.58;;
20705;SDS011;10514;49.468;11.044;2022-08-01T13:48:56;4.15;;;1.50;;
20705;SDS011;10514;49.468;11.044;2022-08-01T13:51:22;3.55;;;2.13;;
20705;SDS011;10514;49.468;11.044;2022-08-01T13:53:48;1.40;;;1.10;;
20705;SDS011;10514;49.468;11.044;2022-08-01T13:56:14;2.88;;;1.33;;
20705;SDS011;10514;49.468;11.044;2022-08-01T13:58:42;2.90;;;1.13;;
20705;SDS011;10514;49.468;11.044;2022-08-01T14:01:08;2.28;;;1.30;;
20705;SDS011;10514;49.468;11.044;2022-08-01T14:03:34;4.90;;;0.88;;
20705;SDS011;10514;49.468;11.044;2022-08-01T14:06:01;1.02;;;0.93;;
20705;SDS011;10514;49.468;11.044;2022-08-01T14:08:27;1.95;;;0.77;;
20705;SDS011;10514;49.468;11.044;2022-08-01T14:10:53;4.95;;;0.80;;
20705;SDS011;10514;49.468;11.044;2022-08-01T14:13:22;1.13;;;0.85;;
20705;SDS011;10514;49.468;11.044;2022-08-01T14:15:48;4.40;;;0.90;;
20705;SDS011;10514;49.468;11.044;2022-08-01T14:18:15;2.22;;;1.20;;
20705;SDS011;10514;49.468;11.044;2022-08-01T14:20:41;2.55;;;0.80;;
20705;SDS011;10514;49.468;11.044;2022-08-01T14:23:07;4.75;;;1.50;;
20705;SDS011;10514;49.468;11.044;2022-08-01T14:25:33;0.70;;;0.70;;
20705;SDS011;10514;49.468;11.044;2022-08-01T14:27:59;1.77;;;0.93;;
20705;SDS011;10514;49.468;11.044;2022-08-01T14:30:25;1.00;;;0.90;;
20705;SDS011;10514;49.468;11.044;2022-08-01T14:32:51;2.60;;;1.40;;
20705;SDS011;10514;49.468;11.044;2022-08-01T14:35:17;2.40;;;0.77;;
20705;SDS011;10514;49.468;11.044;2022-08-01T14:37:43;0.77;;;0.70;;
20705;SDS011;10514;49.468;11.044;2022-08-01T14:40:09;0.60;;;0.60;;
20705;SDS011;10514;49.468;11.044;2022-08-01T14:42:38;1.05;;;0.60;;
20705;SDS011;10514;49.468;11.044;2022-08-01T14:45:05;2.58;;;0.80;;
20705;SDS011;10514;49.468;11.044;2022-08-01T14:47:40;1.42;;;0.70;;
20705;SDS011;10514;49.468;11.044;2022-08-01T14:50:08;0.57;;;0.57;;
20705;SDS011;10514;49.468;11.044;2022-08-01T14:52:36;1.77;;;0.77;;
20705;SDS011;10514;49.468;11.044;2022-08-01T14:55:03;1.52;;;1.08;;
20705;SDS011;10514;49.468;11.044;2022-08-01T14:57:29;2.83;;;0.70;;
20705;SDS011;10514;49.468;11.044;2022-08-01T14:59:55;2.95;;;1.20;;
20705;SDS011;10514;49.468;11.044;2022-08-01T15:02:22;1.10;;;0.85;;
20705;SDS011;10514;49.468;11.044;2022-08-01T15:04:48;1.08;;;0.70;;
20705;SDS011;10514;49.468;11.044;2022-08-01T15:07:14;1.52;;;0.63;;
20705;SDS011;10514;49.468;11.044;2022-08-01T15:09:41;0.93;;;0.65;;
20705;SDS011;10514;49.468;11.044;2022-08-01T15:12:08;0.80;;;0.70;;
20705;SDS011;10514;49.468;11.044;2022-08-01T15:14:34;0.98;;;0.80;;
20705;SDS011;10514;49.468;11.044;2022-08-01T15:17:22;1.05;;;0.65;;
20705;SDS011;10514;49.468;11.044;2022-08-01T15:19:54;3.45;;;0.68;;
20705;SDS011;10514;49.468;11.044;2022-08-01T15:22:21;0.88;;;0.70;;
20705;SDS011;10514;49.468;11.044;2022-08-01T15:24:47;1.65;;;1.10;;
20705;SDS011;10514;49.468;11.044;2022-08-01T15:27:14;2.78;;;1.02;;
20705;SDS011;10514;49.468;11.044;2022-08-01T15:29:40;0.90;;;0.70;;
20705;SDS011;10514;49.468;11.044;2022-08-01T15:32:06;1.10;;;0.63;;
20705;SDS011;10514;49.468;11.044;2022-08-01T15:34:33;0.60;;;0.57;;